Highland, Arkansas
Current Conditions -  °F | °C
As of 4:35 AM on Thursday 18 Dec 2014 (Local Time) from KARG Reporting Station
Overcast Overcast  
Wind Chill: 31°   Ceiling: 5500
Heat Index: 36°   Visibility: 8mi
Dew Point: 32°   Wind: 6mph
Humidity: 87%   Direction: 80°E
Pressure: 30.24"   Gusts: NA
Location:  36.3439°N, 91.3866°W
Report Text: KARG 181035Z AUTO 08005KT 8SM FEW009 OVC055 02/00 A3024 RMK AO1
Loading
Personal Weather Stations






























Interactive Weather Map New forecast layout! Learn more

10-Day Weather Forecast

Advertisements
Track Severe Weather on mobile